Terminal Aerodrome Forecast
Issued by NWS

Home | Current Version | Previous Version | Text Only | Print | Product List | Glossary On
Versions: 1 2 3 4 5 6 7 8 9 10 11 12 13 14 15 16 17
000
FTUS43 KBIS 020538
TAFDIK
TAF
KDIK 020538Z 0206/0306 15009KT P6SM BKN060
      TEMPO 0206/0210 27015G25KT 5SM -TSRA OVC040CB
     FM021000 13011KT P6SM -SHRA OVC080
      TEMPO 0212/0216 3SM TSRA BKN070CB=

USA.gov is the U.S. government's official web portal to all federal, state and local government web resources and services.